createdAt,value
2022-12-05T00:00:20.888Z,101706.27
2022-12-05T00:05:27.783Z,101708.33
2022-12-05T00:10:37.031Z,101697.08
2022-12-05T00:15:43.953Z,101681.20
2022-12-05T00:20:51.478Z,101672.79
2022-12-05T00:25:58.502Z,101656.61
2022-12-05T00:31:06.788Z,101654.08
2022-12-05T00:36:16.343Z,101651.60
2022-12-05T00:41:25.220Z,101670.86
2022-12-05T00:46:34.159Z,101672.98
2022-12-05T00:51:43.296Z,101675.52
2022-12-05T00:56:52.433Z,101675.89
2022-12-05T01:01:59.530Z,101671.76
2022-12-05T01:07:06.482Z,101667.95
2022-12-05T01:12:13.392Z,101672.66
2022-12-05T01:17:20.282Z,101668.04
2022-12-05T01:22:27.175Z,101672.38
2022-12-05T01:27:34.102Z,101663.10
2022-12-05T01:32:41.038Z,101652.79
2022-12-05T01:37:47.926Z,101645.46
2022-12-05T01:42:54.871Z,101645.92
2022-12-05T01:48:03.936Z,101641.45
2022-12-05T01:53:10.924Z,101635.29
2022-12-05T01:58:18.966Z,101629.69
2022-12-05T02:03:26.864Z,101627.03
2022-12-05T02:08:33.893Z,101626.13
2022-12-05T02:14:17.882Z,101633.13
2022-12-05T02:20:00.018Z,101640.36
2022-12-05T02:25:29.075Z,101642.07
2022-12-05T02:30:43.273Z,101634.84
2022-12-05T02:35:59.452Z,101637.77
2022-12-05T02:41:16.749Z,101630.67
2022-12-05T02:46:26.466Z,101633.36
2022-12-05T02:51:37.957Z,101643.55
2022-12-05T02:56:47.928Z,101650.10
2022-12-05T03:01:54.850Z,101651.89
2022-12-05T03:07:04.919Z,101648.40
2022-12-05T03:12:19.470Z,101631.77
2022-12-05T03:17:31.165Z,101618.31
2022-12-05T03:22:45.144Z,101608.12
2022-12-05T03:27:59.503Z,101604.44
2022-12-05T03:33:12.967Z,101609.10
2022-12-05T03:38:26.596Z,101615.19
2022-12-05T03:43:39.163Z,101614.95
2022-12-05T03:48:55.097Z,101618.64
2022-12-05T03:54:07.875Z,101615.56
2022-12-05T03:59:23.341Z,101616.05
2022-12-05T04:04:37.371Z,101623.46
2022-12-05T04:09:48.582Z,101623.42
2022-12-05T04:14:59.798Z,101622.88
2022-12-05T04:20:31.000Z,101627.46
2022-12-05T04:25:44.018Z,101629.67
2022-12-05T04:30:58.304Z,101629.56
2022-12-05T04:36:10.071Z,101621.10
2022-12-05T04:41:20.503Z,101618.11
2022-12-05T04:46:27.936Z,101614.02
2022-12-05T04:51:37.849Z,101618.36
2022-12-05T04:56:47.629Z,101612.56
2022-12-05T05:01:59.279Z,101610.51
2022-12-05T05:07:10.415Z,101604.98
2022-12-05T05:12:19.295Z,101603.88
2022-12-05T05:17:26.514Z,101604.58
2022-12-05T05:22:33.359Z,101607.33
2022-12-05T05:27:40.181Z,101603.77
2022-12-05T05:32:47.087Z,101602.83
2022-12-05T05:37:53.976Z,101604.02
2022-12-05T05:43:00.835Z,101604.75
2022-12-05T05:48:08.409Z,101602.30
2022-12-05T05:53:15.346Z,101605.42
2022-12-05T05:58:22.584Z,101604.80
2022-12-05T06:03:29.594Z,101603.73
2022-12-05T06:08:38.980Z,101596.83
2022-12-05T06:13:46.129Z,101597.40
2022-12-05T06:18:53.165Z,101608.23
2022-12-05T06:24:00.781Z,101613.64
2022-12-05T06:29:07.780Z,101617.32
2022-12-05T06:34:14.746Z,101626.30
2022-12-05T06:39:21.795Z,101616.82
2022-12-05T06:44:29.954Z,101618.16
2022-12-05T06:49:38.235Z,101619.68
2022-12-05T06:54:46.869Z,101619.92
2022-12-05T07:00:13.958Z,101626.87
2022-12-05T07:05:21.289Z,101631.20
2022-12-05T07:10:28.240Z,101624.08
2022-12-05T07:15:35.203Z,101621.80
2022-12-05T07:21:10.551Z,101620.12
2022-12-05T07:26:10.732Z,101611.01
2022-12-05T07:31:19.793Z,101602.28
2022-12-05T07:36:27.952Z,101592.11
2022-12-05T07:41:36.619Z,101591.45
2022-12-05T07:46:46.318Z,101592.23
2022-12-05T07:51:53.291Z,101598.62
2022-12-05T07:57:00.411Z,101594.11
2022-12-05T08:02:07.631Z,101588.80
2022-12-05T08:07:14.771Z,101592.24
2022-12-05T08:12:21.753Z,101591.35
2022-12-05T08:17:31.054Z,101593.35
2022-12-05T08:22:38.081Z,101600.75
2022-12-05T08:27:45.094Z,101604.44
2022-12-05T08:32:52.058Z,101607.69
2022-12-05T08:37:59.059Z,101602.66
2022-12-05T08:43:06.055Z,101601.44
2022-12-05T08:48:13.008Z,101597.77
2022-12-05T08:53:20.186Z,101590.60
2022-12-05T08:58:27.579Z,101592.58
2022-12-05T09:03:34.859Z,101589.34
2022-12-05T09:08:42.777Z,101587.70
2022-12-05T09:13:51.313Z,101580.72
2022-12-05T09:18:58.236Z,101587.05
2022-12-05T09:24:05.255Z,101583.52
2022-12-05T09:29:16.847Z,101584.27
2022-12-05T09:34:26.129Z,101580.45
2022-12-05T09:39:33.044Z,101581.52
2022-12-05T09:44:47.219Z,101573.50
2022-12-05T09:50:00.847Z,101567.23
2022-12-05T09:55:15.205Z,101558.05
2022-12-05T10:00:23.018Z,101554.46
2022-12-05T10:05:36.420Z,101561.70
2022-12-05T10:10:54.852Z,101561.04
2022-12-05T10:16:07.739Z,101560.30
2022-12-05T10:21:21.697Z,101560.53
2022-12-05T10:26:31.954Z,101548.66
2022-12-05T10:31:42.246Z,101542.54
2022-12-05T10:36:57.850Z,101540.36
2022-12-05T10:42:05.796Z,101537.77
2022-12-05T10:47:13.087Z,101530.89
2022-12-05T10:52:20.252Z,101519.77
2022-12-05T10:57:30.257Z,101507.44
2022-12-05T11:02:38.330Z,101505.26
2022-12-05T11:07:51.127Z,101504.07
2022-12-05T11:13:00.456Z,101502.31
2022-12-05T11:18:27.926Z,101509.91
2022-12-05T11:23:34.975Z,101507.02
2022-12-05T11:28:41.984Z,101509.10
2022-12-05T11:34:11.581Z,101495.79
2022-12-05T11:39:18.987Z,101483.48
2022-12-05T11:44:49.634Z,101488.85
2022-12-05T11:50:19.045Z,101476.95
2022-12-05T11:55:30.543Z,101470.29
2022-12-05T12:00:46.506Z,101468.98
2022-12-05T12:06:07.590Z,101464.12
2022-12-05T12:11:25.079Z,101452.51
2022-12-05T12:16:45.406Z,101441.77
2022-12-05T12:22:04.265Z,101431.65
2022-12-05T12:27:24.991Z,101421.88
2022-12-05T12:32:42.149Z,101409.98
2022-12-05T12:38:03.602Z,101397.42
2022-12-05T12:43:51.679Z,101390.21
2022-12-05T12:48:59.869Z,101391.08
2022-12-05T12:54:54.844Z,101388.75
2022-12-05T13:00:12.637Z,101386.59
2022-12-05T13:05:28.282Z,101390.36
2022-12-05T13:10:41.066Z,101385.94
2022-12-05T13:15:51.542Z,101392.27
2022-12-05T13:21:01.045Z,101396.70
2022-12-05T13:26:12.109Z,101397.64
2022-12-05T13:31:19.978Z,101396.54
2022-12-05T13:36:43.264Z,101397.02
2022-12-05T13:42:09.920Z,101397.25
2022-12-05T13:47:30.675Z,101396.98
2022-12-05T13:52:46.616Z,101389.33
2022-12-05T13:57:56.015Z,101376.62
2022-12-05T14:03:05.365Z,101373.84
2022-12-05T14:08:46.391Z,101374.64
2022-12-05T14:13:53.442Z,101369.99
2022-12-05T14:19:07.274Z,101359.27
2022-12-05T14:24:21.442Z,101356.36
2022-12-05T14:29:45.672Z,101357.30
2022-12-05T14:34:58.681Z,101354.42
2022-12-05T14:40:24.992Z,101354.23
2022-12-05T14:45:36.226Z,101347.54
2022-12-05T14:50:46.519Z,101351.46
2022-12-05T14:55:57.646Z,101345.94
2022-12-05T15:01:15.007Z,101338.50
2022-12-05T15:06:26.052Z,101332.33
2022-12-05T15:11:35.785Z,101334.73
2022-12-05T15:16:45.830Z,101331.02
2022-12-05T15:21:57.343Z,101327.91
2022-12-05T15:27:07.879Z,101322.77
2022-12-05T15:32:22.937Z,101317.23
2022-12-05T15:37:36.296Z,101318.46
2022-12-05T15:42:47.302Z,101324.86
2022-12-05T15:47:59.493Z,101329.40
2022-12-05T15:53:12.144Z,101328.38
2022-12-05T15:58:27.675Z,101332.11
2022-12-05T16:03:43.599Z,101328.31
2022-12-05T16:08:52.606Z,101332.11
2022-12-05T16:14:06.357Z,101327.71
2022-12-05T16:19:22.471Z,101326.91
2022-12-05T16:24:33.242Z,101320.35
2022-12-05T16:29:40.486Z,101313.32
2022-12-05T16:34:47.950Z,101313.29
2022-12-05T16:39:55.218Z,101316.92
2022-12-05T16:45:34.602Z,101318.61
2022-12-05T16:50:54.474Z,101316.02
2022-12-05T16:56:05.263Z,101306.66
2022-12-05T17:01:20.448Z,101302.34
2022-12-05T17:07:10.022Z,101296.77
2022-12-05T17:13:11.796Z,101289.40
2022-12-05T17:18:40.983Z,101283.13
2022-12-05T17:23:49.264Z,101285.16
2022-12-05T17:28:56.290Z,101281.00
2022-12-05T17:34:03.219Z,101272.35
2022-12-05T17:39:10.166Z,101264.38
2022-12-05T17:44:17.215Z,101258.64
2022-12-05T17:49:24.716Z,101254.20
2022-12-05T17:54:31.891Z,101260.45
2022-12-05T17:59:39.159Z,101260.04
2022-12-05T18:04:48.919Z,101256.27
2022-12-05T18:09:56.038Z,101254.60
2022-12-05T18:15:03.328Z,101249.27
2022-12-05T18:20:15.841Z,101245.33
2022-12-05T19:25:18.047Z,101223.09
2022-12-05T19:30:25.132Z,101224.98
2022-12-05T19:35:32.127Z,101222.99
2022-12-05T19:40:39.012Z,101215.69
2022-12-05T19:45:49.150Z,101215.88
2022-12-05T19:50:58.439Z,101217.40
2022-12-05T19:56:06.852Z,101218.09
2022-12-05T20:01:17.195Z,101218.94
2022-12-05T20:06:25.342Z,101222.77
2022-12-05T20:11:31.438Z,101226.65
2022-12-05T20:16:38.408Z,101224.92
2022-12-05T20:21:45.590Z,101217.39
2022-12-05T20:26:53.180Z,101213.99
2022-12-05T20:32:00.148Z,101212.98
2022-12-05T20:37:07.048Z,101205.26
2022-12-05T20:42:13.985Z,101199.30
2022-12-05T20:47:21.147Z,101201.25
2022-12-05T20:52:28.844Z,101200.86
2022-12-05T20:57:36.418Z,101199.61
2022-12-05T21:02:43.434Z,101186.36
2022-12-05T21:07:50.338Z,101174.48
2022-12-05T21:12:57.167Z,101170.46
2022-12-05T21:18:04.068Z,101169.19
2022-12-05T21:23:11.058Z,101167.22
2022-12-05T21:28:18.060Z,101167.75
2022-12-05T21:33:28.826Z,101167.89
2022-12-05T21:38:36.470Z,101169.42
2022-12-05T21:43:43.371Z,101170.27
2022-12-05T21:48:50.295Z,101167.07
2022-12-05T21:53:57.135Z,101169.35
2022-12-05T21:59:04.052Z,101172.55
2022-12-05T22:04:10.976Z,101164.87
2022-12-05T22:09:17.810Z,101159.84
2022-12-05T22:14:24.824Z,101149.58
2022-12-05T22:19:32.402Z,101148.73
2022-12-05T22:24:40.387Z,101140.70
2022-12-05T22:29:49.933Z,101139.73
2022-12-05T22:35:03.760Z,101139.13
2022-12-05T22:40:13.920Z,101134.00
2022-12-05T22:45:20.869Z,101132.23
2022-12-05T22:50:27.750Z,101128.33
2022-12-05T22:55:35.233Z,101113.41
2022-12-05T23:00:42.592Z,101104.73
2022-12-05T23:05:49.541Z,101100.38
2022-12-05T23:10:59.721Z,101102.89
2022-12-05T23:16:10.907Z,101097.25
2022-12-05T23:21:23.177Z,101086.52
2022-12-05T23:26:32.848Z,101078.14
2022-12-05T23:31:39.944Z,101072.46
2022-12-05T23:36:47.014Z,101077.34
2022-12-05T23:41:54.659Z,101072.27
2022-12-05T23:47:01.572Z,101067.16
2022-12-05T23:52:08.559Z,101061.91
2022-12-05T23:57:17.815Z,101057.30
